Time;durP1;ratioP1;P1;durP2;ratioP2;P2;SDS_P1;SDS_P2;PMS_P1;PMS_P2;Temp;Humidity;BMP_temperature;BMP_pressure;BME280_temperature;BME280_humidity;BME280_pressure;Samples;Min_cycle;Max_cycle;Signal;HPM_P1;HPM_P2
2022/05/24 00:00:30;;;;;;;1.15;0.90;;;;;;;11.56;73.95;99369.16;5073665;28;20044;-50
2022/05/24 00:02:57;;;;;;;1.83;1.20;;;;;;;11.51;73.61;99366.31;5039300;28;20032;-50
2022/05/24 00:05:25;;;;;;;1.55;1.13;;;;;;;11.50;74.31;99371.94;5056122;28;20028;-53
2022/05/24 00:07:51;;;;;;;2.00;1.10;;;;;;;11.51;74.06;99377.06;5039258;28;20028;-53
2022/05/24 00:10:27;;;;;;;1.75;1.25;;;;;;;11.52;73.46;99367.97;5056452;28;20051;-50
2022/05/24 00:12:54;;;;;;;2.35;1.65;;;;;;;11.45;73.64;99353.78;5073658;28;20157;-51
2022/05/24 00:15:23;;;;;;;1.80;1.10;;;;;;;11.34;73.98;99355.38;5074493;28;20158;-55
2022/05/24 00:17:56;;;;;;;1.13;1.05;;;;;;;11.42;74.09;99362.28;5073644;28;20035;-52
2022/05/24 00:20:26;;;;;;;0.82;0.82;;;;;;;11.43;74.27;99370.13;5074142;28;20024;-49
2022/05/24 00:22:53;;;;;;;4.07;1.00;;;;;;;11.38;74.49;99361.94;5066873;28;20048;-54
2022/05/24 00:25:19;;;;;;;0.68;0.50;;;;;;;11.20;74.49;99330.53;5094737;28;20032;-55
2022/05/24 00:27:46;;;;;;;0.80;0.68;;;;;;;11.30;74.57;99364.13;5094579;28;20081;-55
2022/05/24 00:30:14;;;;;;;0.90;0.52;;;;;;;11.30;74.93;99364.13;5059725;28;20032;-51
2022/05/24 00:32:40;;;;;;;3.33;0.50;;;;;;;11.12;74.25;99351.50;5075790;28;20020;-53
2022/05/24 00:35:07;;;;;;;1.27;0.70;;;;;;;11.25;74.04;99375.53;5094241;28;20077;-54
2022/05/24 00:37:36;;;;;;;6.90;0.68;;;;;;;11.00;73.50;99338.00;5059652;28;20222;-53
2022/05/24 00:40:03;;;;;;;0.65;0.65;;;;;;;11.17;73.73;99376.66;5076262;28;20074;-54
2022/05/24 00:42:31;;;;;;;0.95;0.60;;;;;;;11.12;73.62;99373.00;5094243;28;20036;-49
2022/05/24 00:45:07;;;;;;;0.40;0.35;;;;;;;11.09;73.62;99378.81;5094520;28;20032;-50
2022/05/24 00:47:43;;;;;;;1.15;0.50;;;;;;;11.04;73.28;99377.63;5094559;28;20514;-51
2022/05/24 00:50:14;;;;;;;0.98;0.40;;;;;;;11.01;73.34;99371.88;5076662;28;20445;-52
2022/05/24 00:52:58;;;;;;;0.30;0.30;;;;;;;11.00;73.90;99378.31;5095844;28;20035;-53
2022/05/24 00:55:25;;;;;;;0.20;0.20;;;;;;;10.93;73.22;99375.69;5076445;28;20032;-55
2022/05/24 00:57:59;;;;;;;1.50;0.38;;;;;;;10.89;73.44;99363.75;5095012;28;20032;-53
2022/05/24 01:00:25;;;;;;;0.50;0.50;;;;;;;10.58;73.96;99324.41;5077046;28;20089;-54
2022/05/24 01:02:50;;;;;;;0.98;0.30;;;;;;;10.84;73.79;99367.09;5094171;28;20032;-51
2022/05/24 01:05:22;;;;;;;1.10;0.50;;;;;;;10.53;73.64;99317.03;5093643;28;20036;-50
2022/05/24 01:07:48;;;;;;;2.63;0.30;;;;;;;10.76;73.04;99355.84;5094714;28;20036;-50
2022/05/24 01:10:36;;;;;;;1.25;0.50;;;;;;;10.77;73.49;99363.66;5094721;28;20036;-49
2022/05/24 01:13:19;;;;;;;0.20;0.20;;;;;;;10.69;73.50;99363.13;5094572;28;20054;-53
2022/05/24 01:15:45;;;;;;;0.20;0.20;;;;;;;10.73;73.13;99369.69;5076389;28;20036;-53
2022/05/24 01:18:12;;;;;;;0.35;0.25;;;;;;;10.67;73.03;99360.66;5076482;28;20472;-55
2022/05/24 01:20:40;;;;;;;0.20;0.20;;;;;;;10.62;72.68;99360.50;5096569;28;20034;-55
2022/05/24 01:23:46;;;;;;;0.30;0.30;;;;;;;10.62;72.93;99369.41;5079759;28;20495;-54
2022/05/24 01:26:24;;;;;;;1.55;0.20;;;;;;;10.59;73.38;99366.31;5066903;28;20081;-54
2022/05/24 01:28:56;;;;;;;0.30;0.30;;;;;;;10.59;72.81;99369.00;5065170;28;20020;-52
2022/05/24 01:31:24;;;;;;;0.20;0.20;;;;;;;10.57;72.74;99371.09;5080471;28;20440;-53
2022/05/24 01:36:40;;;;;;;0.13;0.13;;;;;;;10.51;72.33;99372.81;5082022;28;20024;-54
2022/05/24 01:39:08;;;;;;;0.20;0.20;;;;;;;10.25;72.57;99336.22;5096697;28;20028;-51
2022/05/24 01:41:45;;;;;;;0.85;0.30;;;;;;;10.32;72.84;99366.53;5062946;28;20164;-52
2022/05/24 01:44:12;;;;;;;0.75;0.30;;;;;;;10.35;72.56;99376.84;5097420;28;20028;-51
2022/05/24 01:46:43;;;;;;;3.22;0.40;;;;;;;10.28;72.80;99368.81;5079143;28;20063;-50
2022/05/24 01:49:14;;;;;;;0.70;0.30;;;;;;;10.25;73.13;99374.63;5099027;28;20039;-51
2022/05/24 01:51:47;;;;;;;0.38;0.30;;;;;;;10.24;73.44;99370.28;5098787;28;20027;-52
2022/05/24 01:54:14;;;;;;;0.45;0.25;;;;;;;10.24;73.39;99377.53;5100907;28;20200;-54
2022/05/24 01:56:47;;;;;;;0.25;0.20;;;;;;;10.23;73.55;99370.50;5082413;28;20482;-53
2022/05/24 01:59:15;;;;;;;1.45;0.30;;;;;;;10.23;73.24;99381.22;5078421;28;20032;-51
2022/05/24 02:01:48;;;;;;;0.50;0.20;;;;;;;10.20;74.09;99389.75;5096661;28;20045;-52
2022/05/24 02:04:15;;;;;;;0.50;0.40;;;;;;;10.16;73.49;99381.31;5096191;28;20028;-52
2022/05/24 02:06:41;;;;;;;1.10;0.30;;;;;;;10.14;73.98;99379.84;5078059;28;20032;-52
2022/05/24 02:09:08;;;;;;;0.52;0.35;;;;;;;10.14;74.26;99380.69;5079270;28;20077;-49
2022/05/24 02:11:35;;;;;;;0.30;0.30;;;;;;;9.99;74.54;99364.91;5077927;28;20039;-52
2022/05/24 02:14:19;;;;;;;0.93;0.32;;;;;;;10.11;73.98;99381.13;5095579;28;20032;-52
2022/05/24 02:16:54;;;;;;;0.45;0.30;;;;;;;10.11;74.33;99383.81;5077789;28;20115;-52
2022/05/24 02:19:21;;;;;;;0.30;0.20;;;;;;;10.14;74.55;99379.84;5095629;28;20032;-51
2022/05/24 02:21:55;;;;;;;0.80;0.40;;;;;;;10.12;74.61;99380.06;5093595;28;20031;-50
2022/05/24 02:24:22;;;;;;;;;;;;;;;10.15;75.05;99386.88;5058342;28;20108;-54
2022/05/24 02:26:49;;;;;;;0.45;0.30;;;;;;;10.03;74.97;99376.84;5075610;28;19908;-52
2022/05/24 02:29:17;;;;;;;1.70;0.40;;;;;;;10.11;75.19;99383.81;5057277;28;20342;-53
2022/05/24 02:31:44;;;;;;;0.85;0.40;;;;;;;10.10;75.38;99387.50;5040216;28;20515;-54
2022/05/24 02:34:10;;;;;;;0.68;0.30;;;;;;;10.04;75.73;99385.72;5057060;28;20032;-54
2022/05/24 02:36:36;;;;;;;0.50;0.50;;;;;;;10.05;75.94;99388.19;5040624;28;20032;-49
2022/05/24 02:39:03;;;;;;;0.70;0.40;;;;;;;9.93;76.15;99375.69;5056972;28;20021;-50
2022/05/24 02:41:29;;;;;;;2.30;0.60;;;;;;;9.99;76.58;99397.09;5075594;28;20032;-55
2022/05/24 02:43:57;;;;;;;0.90;0.50;;;;;;;10.00;76.46;99396.06;5074964;28;20052;-52
2022/05/24 02:46:23;;;;;;;0.47;0.47;;;;;;;9.98;76.75;99402.69;5074720;28;20437;-52
2022/05/24 02:48:49;;;;;;;0.60;0.60;;;;;;;9.95;76.94;99403.09;5040298;28;20067;-49
2022/05/24 02:51:16;;;;;;;0.63;0.55;;;;;;;9.93;77.29;99408.69;5056623;28;20028;-55
2022/05/24 02:56:43;;;;;;;1.95;0.70;;;;;;;9.89;77.12;99412.84;5075005;28;20036;-53
2022/05/24 02:59:08;;;;;;;1.55;0.70;;;;;;;9.89;77.09;99413.66;5056793;28;20480;-50
2022/05/24 03:01:34;;;;;;;0.85;0.80;;;;;;;9.87;77.28;99404.19;5074767;28;20040;-52
2022/05/24 03:04:01;;;;;;;2.53;0.50;;;;;;;9.94;76.95;99417.56;5074800;28;20078;-54
2022/05/24 03:06:27;;;;;;;1.38;0.60;;;;;;;9.96;76.82;99408.25;5074790;28;20460;-55
2022/05/24 03:14:24;;;;;;;1.17;0.80;;;;;;;9.89;77.16;99419.00;5061203;28;20032;-52
2022/05/24 03:16:53;;;;;;;0.70;0.60;;;;;;;9.87;77.36;99409.53;5041063;28;20034;-52
2022/05/24 03:19:19;;;;;;;1.33;0.70;;;;;;;9.96;77.86;99415.50;5075620;28;20035;-52
2022/05/24 03:21:46;;;;;;;1.17;0.77;;;;;;;9.90;77.81;99417.16;5075400;28;20037;-51
2022/05/24 03:24:12;;;;;;;1.75;0.63;;;;;;;9.97;77.63;99419.78;5058563;28;20040;-52
2022/05/24 03:26:38;;;;;;;3.35;0.73;;;;;;;9.97;77.85;99430.53;5057483;28;20028;-54
2022/05/24 03:29:05;;;;;;;1.88;0.68;;;;;;;9.94;78.04;99423.75;5056788;28;20025;-52
2022/05/24 03:31:32;;;;;;;1.60;1.05;;;;;;;9.95;77.77;99428.06;5055939;28;20388;-52
2022/05/24 03:33:58;;;;;;;1.40;1.10;;;;;;;9.98;77.74;99426.81;5073737;28;20445;-54
2022/05/24 03:36:24;;;;;;;2.25;0.93;;;;;;;9.93;77.99;99421.28;5073347;28;20150;-51
2022/05/24 03:38:49;;;;;;;2.90;1.40;;;;;;;9.95;78.33;99416.50;5073919;28;20028;-55
2022/05/24 03:41:15;;;;;;;2.58;1.50;;;;;;;9.96;78.38;99431.59;5076982;28;20077;-60
2022/05/24 03:43:41;;;;;;;2.45;1.67;;;;;;;9.95;77.90;99432.59;5077100;28;20039;-55
2022/05/24 03:46:09;;;;;;;2.60;1.45;;;;;;;9.96;78.53;99432.38;5074760;28;20047;-58
2022/05/24 03:48:36;;;;;;;2.17;1.58;;;;;;;9.97;78.60;99419.78;5057325;28;20033;-53
2022/05/24 03:51:04;;;;;;;2.00;1.77;;;;;;;10.00;78.24;99440.84;5057340;28;20116;-53
2022/05/24 03:53:30;;;;;;;1.77;1.67;;;;;;;9.83;78.97;99414.50;5077612;28;20078;-55
2022/05/24 03:55:55;;;;;;;2.38;1.77;;;;;;;9.98;78.90;99442.91;5075541;28;20098;-55
2022/05/24 03:58:22;;;;;;;3.25;1.98;;;;;;;10.01;78.76;99447.81;5039851;28;20032;-54
2022/05/24 04:00:48;;;;;;;2.08;1.90;;;;;;;9.96;78.45;99439.63;5074040;28;20150;-55
2022/05/24 04:03:14;;;;;;;4.10;2.15;;;;;;;10.03;78.50;99453.81;5073908;28;20124;-52
2022/05/24 04:05:41;;;;;;;4.80;2.10;;;;;;;9.88;78.85;99433.47;5073375;28;20078;-52
2022/05/24 04:08:07;;;;;;;6.32;2.20;;;;;;;9.99;79.19;99448.06;5073686;28;20064;-53
2022/05/24 04:10:35;;;;;;;7.05;2.25;;;;;;;10.04;79.17;99463.50;5038816;28;20083;-50
2022/05/24 04:13:01;;;;;;;5.18;2.63;;;;;;;10.03;79.29;99468.06;5054719;28;20062;-53
2022/05/24 04:15:27;;;;;;;2.40;2.20;;;;;;;9.96;79.13;99461.09;5073010;28;20107;-50
2022/05/24 04:17:54;;;;;;;11.60;6.38;;;;;;;9.93;79.25;99454.25;5038575;28;20039;-53
2022/05/24 04:20:21;;;;;;;7.13;4.00;;;;;;;10.06;79.21;99478.34;5072754;28;20028;-51
2022/05/24 04:22:47;;;;;;;6.35;3.33;;;;;;;10.03;79.18;99462.69;5064702;28;20161;-51
2022/05/24 04:25:14;;;;;;;5.40;3.00;;;;;;;10.10;79.10;99472.53;5074938;28;20028;-54
2022/05/24 04:27:41;;;;;;;2.63;2.30;;;;;;;10.10;79.02;99486.78;5074768;28;20036;-54
2022/05/24 04:30:08;;;;;;;2.53;2.22;;;;;;;10.10;79.05;99484.09;5094048;28;20456;-51
2022/05/24 04:32:34;;;;;;;2.20;2.00;;;;;;;10.03;79.25;99470.72;5075360;28;20456;-49
2022/05/24 04:35:00;;;;;;;2.65;2.40;;;;;;;10.13;78.88;99489.03;5075046;28;20059;-53
2022/05/24 04:37:27;;;;;;;1.92;1.63;;;;;;;10.14;79.15;99488.00;5075146;28;20039;-52
2022/05/24 04:39:53;;;;;;;2.15;2.00;;;;;;;10.10;78.54;99480.59;5093122;28;20024;-54
2022/05/24 04:42:18;;;;;;;2.55;1.95;;;;;;;10.21;78.91;99507.56;5093597;28;20161;-49
2022/05/24 04:44:47;;;;;;;2.78;1.98;;;;;;;10.20;78.93;99497.88;5074748;28;20115;-51
2022/05/24 04:47:14;;;;;;;2.03;1.77;;;;;;;10.17;78.47;99484.06;5093654;28;20043;-50
2022/05/24 04:49:43;;;;;;;2.65;2.05;;;;;;;10.16;78.60;99483.25;5074681;28;20020;-50
2022/05/24 04:52:11;;;;;;;2.10;1.85;;;;;;;10.21;78.99;99496.81;5075384;28;20016;-53
2022/05/24 04:54:39;;;;;;;2.78;1.73;;;;;;;10.26;78.67;99504.25;5093879;28;20077;-53
2022/05/24 04:57:06;;;;;;;2.22;1.80;;;;;;;10.22;78.81;99500.34;5078838;28;20613;-51
2022/05/24 04:59:31;;;;;;;1.80;1.70;;;;;;;10.17;78.95;99484.88;5078589;28;20028;-55
2022/05/24 05:01:57;;;;;;;1.95;1.85;;;;;;;10.27;78.81;99497.84;5078652;28;20028;-52
2022/05/24 05:04:24;;;;;;;4.13;1.63;;;;;;;10.31;78.65;99507.16;5097484;28;20040;-55
2022/05/24 05:06:50;;;;;;;2.08;1.85;;;;;;;10.31;78.45;99511.66;5096617;28;20067;-54
2022/05/24 05:09:16;;;;;;;1.95;1.80;;;;;;;10.35;78.51;99516.41;5096656;28;20064;-50
2022/05/24 05:11:42;;;;;;;3.65;1.70;;;;;;;10.36;78.52;99530.63;5096740;28;20081;-54
2022/05/24 05:14:09;;;;;;;3.00;2.20;;;;;;;10.36;78.35;99531.44;5096697;28;20028;-54
2022/05/24 05:16:36;;;;;;;3.33;2.20;;;;;;;10.38;78.10;99526.72;5079064;28;20069;-55
2022/05/24 05:19:04;;;;;;;1.98;1.88;;;;;;;10.26;78.30;99510.44;5100860;28;20047;-55
2022/05/24 05:21:32;;;;;;;4.30;1.80;;;;;;;10.40;78.45;99532.69;5098780;28;20115;-54
2022/05/24 05:23:59;;;;;;;2.85;1.50;;;;;;;10.44;78.08;99541.13;5076487;28;20055;-55
2022/05/24 05:26:25;;;;;;;1.80;1.40;;;;;;;10.49;77.92;99545.84;5077548;28;20115;-50
2022/05/24 05:28:51;;;;;;;2.20;1.60;;;;;;;10.55;78.04;99545.81;5078861;28;20114;-51
2022/05/24 05:31:17;;;;;;;1.52;1.42;;;;;;;10.60;77.45;99545.97;5041451;28;20028;-52
2022/05/24 05:33:44;;;;;;;1.50;1.40;;;;;;;10.67;77.44;99550.50;5076420;28;20503;-49
2022/05/24 05:36:11;;;;;;;1.92;1.60;;;;;;;10.75;76.96;99552.91;5076594;28;20147;-54
2022/05/24 05:38:37;;;;;;;2.28;1.65;;;;;;;10.85;76.43;99556.75;5076060;28;20025;-50
2022/05/24 05:41:04;;;;;;;2.63;1.65;;;;;;;10.91;76.40;99555.06;5076271;28;20040;-51
2022/05/24 05:43:30;;;;;;;1.65;1.55;;;;;;;10.97;76.21;99564.91;5058050;28;20042;-51
2022/05/24 05:45:58;;;;;;;1.67;1.40;;;;;;;11.03;76.17;99558.69;5076137;28;20032;-50
2022/05/24 05:48:24;;;;;;;3.13;1.33;;;;;;;11.03;75.70;99550.63;5058382;28;20036;-51
2022/05/24 05:50:50;;;;;;;1.60;1.50;;;;;;;11.14;75.42;99562.50;5075546;28;20111;-51
2022/05/24 05:53:18;;;;;;;1.40;1.30;;;;;;;11.10;75.45;99558.63;5075358;28;20027;-49
2022/05/24 05:55:44;;;;;;;1.58;1.42;;;;;;;11.07;75.49;99555.56;5075809;28;20029;-49
2022/05/24 05:58:11;;;;;;;1.85;1.40;;;;;;;11.11;75.01;99578.28;5075907;28;20411;-54
2022/05/24 06:00:38;;;;;;;1.83;1.42;;;;;;;11.06;75.02;99561.97;5057298;28;20028;-52
2022/05/24 06:03:04;;;;;;;2.03;1.42;;;;;;;11.09;75.20;99577.66;5075132;28;20353;-51
2022/05/24 06:05:29;;;;;;;2.30;1.58;;;;;;;10.87;75.79;99550.34;5057091;28;20124;-51
2022/05/24 06:07:58;;;;;;;2.95;1.80;;;;;;;11.11;75.64;99591.72;5075536;28;20111;-50
2022/05/24 06:10:25;;;;;;;1.60;1.50;;;;;;;11.10;75.31;99582.81;5075490;28;20029;-52
2022/05/24 06:12:51;;;;;;;5.65;1.70;;;;;;;11.15;75.49;99585.66;5056965;28;20025;-49
2022/05/24 06:15:18;;;;;;;1.50;1.40;;;;;;;11.17;75.00;99593.50;5075509;28;20040;-50
2022/05/24 06:17:45;;;;;;;2.30;1.55;;;;;;;11.21;74.75;99586.66;5075059;28;20032;-49
2022/05/24 06:20:12;;;;;;;2.13;1.48;;;;;;;11.24;74.75;99588.91;5057191;28;20376;-50
2022/05/24 06:22:37;;;;;;;1.40;1.30;;;;;;;11.22;75.32;99589.13;5074520;28;20054;-50
2022/05/24 06:25:04;;;;;;;2.72;1.63;;;;;;;11.15;74.86;99591.03;5075027;28;20029;-49
2022/05/24 06:27:30;;;;;;;3.35;1.77;;;;;;;11.24;75.33;99605.03;5040670;28;20112;-52
2022/05/24 06:29:56;;;;;;;1.50;1.40;;;;;;;11.14;75.85;99596.63;5057043;28;20384;-49
2022/05/24 06:32:22;;;;;;;2.30;1.70;;;;;;;11.14;75.24;99596.63;5075088;28;20024;-49
2022/05/24 06:34:49;;;;;;;1.63;1.52;;;;;;;11.24;75.95;99613.91;5057115;28;20032;-52
2022/05/24 06:37:15;;;;;;;3.63;1.60;;;;;;;11.22;75.80;99616.00;5056782;28;20472;-51
2022/05/24 06:39:42;;;;;;;3.78;1.63;;;;;;;11.23;75.08;99625.69;5057024;28;20036;-50
2022/05/24 06:42:08;;;;;;;3.38;1.45;;;;;;;11.20;75.49;99620.78;5074940;28;20059;-52
2022/05/24 06:44:34;;;;;;;2.78;1.60;;;;;;;11.24;75.34;99624.66;5074944;28;20074;-51
2022/05/24 06:47:00;;;;;;;1.38;1.27;;;;;;;11.16;75.38;99610.66;5075325;28;20035;-52
2022/05/24 06:49:26;;;;;;;1.77;1.25;;;;;;;11.34;75.40;99628.72;5075749;28;20111;-53
2022/05/24 06:51:51;;;;;;;1.77;1.35;;;;;;;11.23;74.56;99616.81;5076475;28;20043;-53
2022/05/24 06:54:17;;;;;;;2.72;1.27;;;;;;;11.38;74.56;99628.06;5062740;28;20028;-53
2022/05/24 06:56:43;;;;;;;2.17;1.02;;;;;;;11.41;74.32;99622.25;5061092;28;20040;-51
2022/05/24 07:04:40;;;;;;;1.80;1.30;;;;;;;11.63;73.94;99648.75;5060774;28;20035;-54
2022/05/24 07:07:06;;;;;;;12.95;1.60;;;;;;;11.65;73.25;99651.22;5075974;28;20020;-50
2022/05/24 07:09:32;;;;;;;2.28;1.20;;;;;;;11.79;73.58;99658.13;5057611;28;20357;-51
2022/05/24 07:11:58;;;;;;;1.50;1.40;;;;;;;11.86;72.69;99652.69;5075108;28;20494;-52
2022/05/24 07:14:24;;;;;;;1.85;1.35;;;;;;;11.82;72.38;99644.22;5056770;28;20028;-50
2022/05/24 07:16:51;;;;;;;6.00;1.40;;;;;;;12.01;71.44;99662.06;5057596;28;20438;-52
2022/05/24 07:19:17;;;;;;;2.97;1.48;;;;;;;12.37;70.74;99678.47;5074574;28;20476;-52
2022/05/24 07:21:44;;;;;;;1.80;1.50;;;;;;;12.64;70.23;99673.56;5073704;28;20047;-51
2022/05/24 07:24:10;;;;;;;1.60;1.27;;;;;;;12.77;69.81;99670.69;5039428;28;20024;-52
2022/05/24 07:26:38;;;;;;;1.75;1.65;;;;;;;12.76;69.44;99670.94;5055924;28;20035;-51
2022/05/24 07:29:04;;;;;;;2.97;1.50;;;;;;;12.51;68.84;99676.44;5056192;28;20028;-51
2022/05/24 07:31:31;;;;;;;1.67;1.45;;;;;;;12.43;68.98;99671.38;5056025;28;20128;-50
2022/05/24 07:33:59;;;;;;;6.10;1.60;;;;;;;12.44;68.16;99667.59;5074561;28;20026;-55
2022/05/24 07:36:25;;;;;;;1.92;1.42;;;;;;;12.38;68.34;99669.34;5074072;28;20024;-52
2022/05/24 07:38:51;;;;;;;2.25;1.40;;;;;;;12.48;68.32;99685.81;5055844;28;20377;-53
2022/05/24 07:46:48;;;;;;;1.67;1.40;;;;;;;13.59;64.61;99698.19;5059184;28;20033;-52
2022/05/24 07:49:14;;;;;;;1.38;1.10;;;;;;;13.54;63.83;99690.78;5074053;28;20028;-54
2022/05/24 07:51:39;;;;;;;2.85;1.33;;;;;;;13.52;63.56;99700.97;5073723;28;20417;-50
2022/05/24 07:54:05;;;;;;;2.45;1.20;;;;;;;13.36;64.51;99700.59;5055719;28;20028;-54
2022/05/24 07:56:31;;;;;;;2.88;1.25;;;;;;;13.19;64.59;99691.50;5073665;28;20420;-50
2022/05/24 07:58:57;;;;;;;1.33;1.10;;;;;;;13.16;64.06;99706.25;5073267;28;20133;-51
2022/05/24 08:01:23;;;;;;;2.15;1.50;;;;;;;13.24;65.06;99713.22;5073686;28;20074;-50
2022/05/24 08:03:50;;;;;;;3.28;2.05;;;;;;;13.04;64.27;99723.41;5073062;28;20115;-54
2022/05/24 08:06:17;;;;;;;3.35;1.80;;;;;;;13.05;63.98;99715.09;5073475;28;20368;-52
2022/05/24 08:08:43;;;;;;;1.92;1.58;;;;;;;13.71;61.78;99717.91;5055466;28;20035;-53
2022/05/24 08:11:09;;;;;;;3.22;1.95;;;;;;;14.21;59.33;99708.50;5072974;28;20028;-55
2022/05/24 08:13:36;;;;;;;1.77;1.67;;;;;;;14.37;59.06;99715.09;5054944;28;20361;-52
2022/05/24 08:16:03;;;;;;;2.38;1.75;;;;;;;14.42;59.48;99716.00;5038864;28;20423;-54
2022/05/24 08:18:30;;;;;;;2.25;1.60;;;;;;;14.65;58.31;99719.75;5072872;28;20037;-50
2022/05/24 08:20:56;;;;;;;2.63;2.00;;;;;;;14.45;59.14;99720.94;5055454;28;20576;-53
2022/05/24 08:23:23;;;;;;;1.48;1.38;;;;;;;14.00;60.16;99729.66;5069774;28;20044;-52
2022/05/24 08:25:50;;;;;;;1.77;1.35;;;;;;;13.60;61.43;99727.63;5075552;28;20032;-55
2022/05/24 08:28:16;;;;;;;1.35;1.10;;;;;;;13.39;62.19;99734.38;5075362;28;20110;-54
2022/05/24 08:30:42;;;;;;;2.17;1.30;;;;;;;13.39;62.28;99737.09;5079212;28;20365;-53
2022/05/24 08:33:11;;;;;;;2.83;1.38;;;;;;;13.41;63.25;99739.53;5079348;28;20020;-54
2022/05/24 08:35:37;;;;;;;2.28;1.35;;;;;;;13.43;62.30;99740.97;5097462;28;20206;-52
2022/05/24 08:38:04;;;;;;;1.65;1.23;;;;;;;13.45;61.56;99730.75;5097213;28;20059;-55
2022/05/24 08:40:33;;;;;;;2.13;1.50;;;;;;;14.10;60.20;99740.69;5079142;28;20058;-52
2022/05/24 08:43:31;;;;;;;2.95;1.60;;;;;;;14.44;57.55;99740.09;5097258;28;20031;-53
2022/05/24 08:49:06;;;;;;;3.35;1.67;;;;;;;15.25;55.74;99734.72;5082006;28;20024;-52
2022/05/24 08:51:40;;;;;;;4.88;1.73;;;;;;;15.26;55.17;99739.88;5097272;28;20028;-53
2022/05/24 08:54:12;;;;;;;1.80;1.10;;;;;;;15.17;54.83;99743.22;5097516;28;20376;-49
2022/05/24 08:56:50;;;;;;;3.65;1.35;;;;;;;15.06;55.42;99747.59;5097001;28;20046;-50
2022/05/24 08:59:21;;;;;;;1.05;1.05;;;;;;;15.31;54.53;99751.88;5078943;28;20031;-50
2022/05/24 09:01:49;;;;;;;1.65;1.20;;;;;;;15.24;54.26;99750.13;5079259;28;20073;-50
2022/05/24 09:04:15;;;;;;;3.58;1.10;;;;;;;15.24;54.01;99738.47;5097382;28;20028;-54
2022/05/24 09:06:59;;;;;;;1.70;0.93;;;;;;;15.90;51.79;99748.81;5097494;28;20032;-51
2022/05/24 09:10:05;;;;;;;5.50;1.20;;;;;;;15.94;52.81;99748.09;5097383;28;20031;-51
2022/05/24 09:13:03;;;;;;;1.77;1.10;;;;;;;16.91;50.17;99739.69;5071488;28;20035;-55
2022/05/24 09:15:52;;;;;;;1.40;0.98;;;;;;;17.34;48.14;99752.38;5085784;28;20032;-54
2022/05/24 09:18:58;;;;;;;3.25;0.70;;;;;;;16.91;49.05;99747.84;5084587;28;20032;-55
2022/05/24 09:21:29;;;;;;;1.08;0.90;;;;;;;16.65;50.76;99753.72;5070987;28;20036;-53
2022/05/24 09:24:14;;;;;;;3.38;0.75;;;;;;;16.59;50.60;99749.31;5078738;28;20044;-54
2022/05/24 09:27:05;;;;;;;2.25;0.88;;;;;;;16.82;50.51;99761.81;5078542;28;20019;-51
2022/05/24 09:29:32;;;;;;;1.27;0.85;;;;;;;16.89;50.40;99763.53;5082860;28;20115;-55
2022/05/24 09:32:03;;;;;;;1.65;0.82;;;;;;;17.12;50.09;99755.13;5062714;28;20120;-51
2022/05/24 09:34:32;;;;;;;1.35;0.75;;;;;;;17.39;48.96;99759.75;5097429;28;20031;-55
2022/05/24 09:37:01;;;;;;;0.82;0.60;;;;;;;17.54;48.42;99740.09;5078847;28;20036;-51
2022/05/24 09:39:31;;;;;;;1.33;0.70;;;;;;;17.52;45.93;99737.63;5079199;28;20118;-52
2022/05/24 09:42:00;;;;;;;2.22;0.70;;;;;;;18.03;46.25;99766.31;5078687;28;20032;-50
2022/05/24 09:44:29;;;;;;;4.82;1.83;;;;;;;18.98;45.40;99739.16;5096758;28;20391;-54
2022/05/24 09:46:55;;;;;;;1.42;0.70;;;;;;;19.77;45.24;99750.72;5096796;28;20035;-51
2022/05/24 09:49:28;;;;;;;1.50;0.77;;;;;;;20.45;42.17;99758.56;5096458;28;20107;-52
2022/05/24 09:51:58;;;;;;;1.58;0.77;;;;;;;20.42;41.14;99759.09;5096115;28;20112;-51
2022/05/24 09:54:27;;;;;;;2.88;0.60;;;;;;;21.55;38.71;99760.56;5095766;28;20093;-52
2022/05/24 09:57:07;;;;;;;0.50;0.50;;;;;;;21.29;40.80;99768.09;5077977;28;20060;-56
2022/05/24 09:59:35;;;;;;;0.98;0.60;;;;;;;20.41;42.42;99762.94;5079334;28;20035;-52
2022/05/24 10:02:20;;;;;;;2.08;0.82;;;;;;;20.53;41.44;99761.81;5080437;28;20404;-53
2022/05/24 10:04:46;;;;;;;2.30;0.70;;;;;;;19.66;42.77;99760.78;5064197;28;20483;-54
2022/05/24 10:07:31;;;;;;;0.52;0.52;;;;;;;18.74;44.25;99768.69;5096683;28;20055;-54
2022/05/24 10:10:08;;;;;;;2.75;0.70;;;;;;;18.02;44.66;99773.66;5096106;28;20100;-53
2022/05/24 10:13:07;;;;;;;1.33;0.68;;;;;;;17.42;46.62;99784.50;5095954;28;20058;-52
2022/05/24 10:16:03;;;;;;;0.82;0.50;;;;;;;17.51;47.27;99784.03;5082907;28;20511;-50
2022/05/24 10:18:55;;;;;;;1.10;0.52;;;;;;;20.62;41.10;99769.19;5066920;28;20039;-51
2022/05/24 10:21:49;;;;;;;1.08;0.73;;;;;;;22.11;37.31;99771.03;5064460;28;20050;-51
2022/05/24 10:24:55;;;;;;;0.70;0.70;;;;;;;23.08;35.70;99763.72;5075795;28;20132;-53
2022/05/24 10:27:42;;;;;;;0.52;0.50;;;;;;;24.00;34.29;99730.56;5043636;28;20028;-51
2022/05/24 10:30:13;;;;;;;1.35;0.45;;;;;;;24.77;33.75;99749.16;5040503;28;20150;-52
2022/05/24 10:39:06;;;;;;;0.73;0.52;;;;;;;22.18;33.48;99762.50;5061415;28;20030;-52
2022/05/24 10:42:11;;;;;;;0.75;0.30;;;;;;;21.13;36.94;99764.59;5062407;28;20059;-49
2022/05/24 10:44:56;;;;;;;;;;;;;;;21.72;35.84;99760.97;5049297;28;20115;-51
2022/05/24 10:47:33;;;;;;;;;;;;;;;20.25;37.33;99775.78;5060815;28;20276;-50
2022/05/24 10:50:05;;;;;;;0.38;0.35;;;;;;;20.80;38.88;99772.38;5075409;28;19962;-54
2022/05/24 10:52:38;;;;;;;1.02;0.50;;;;;;;21.59;38.14;99776.09;5073440;28;20028;-55
2022/05/24 10:55:12;;;;;;;1.23;0.50;;;;;;;22.86;38.56;99774.38;5074751;28;20610;-53
2022/05/24 10:57:47;;;;;;;1.42;0.80;;;;;;;21.63;37.09;99777.16;5057677;28;20377;-51
2022/05/24 11:00:18;;;;;;;0.30;0.30;;;;;;;20.41;39.67;99768.41;5074926;28;20090;-49
2022/05/24 11:03:06;;;;;;;0.90;0.52;;;;;;;19.76;41.09;99775.53;5074795;28;20028;-53
2022/05/24 11:05:38;;;;;;;2.10;0.45;;;;;;;19.21;42.17;99769.69;5074478;28;20059;-51
2022/05/24 11:08:31;;;;;;;0.93;0.50;;;;;;;19.14;40.69;99778.09;5056432;28;20059;-49
2022/05/24 11:11:04;;;;;;;2.88;0.47;;;;;;;19.27;40.81;99774.88;5060480;28;20111;-48
2022/05/24 11:13:43;;;;;;;2.25;0.60;;;;;;;21.26;36.79;99774.91;5074054;28;20408;-49
2022/05/24 11:16:18;;;;;;;1.05;0.40;;;;;;;22.72;33.57;99760.59;5056245;28;20037;-49
2022/05/24 11:18:44;;;;;;;0.77;0.40;;;;;;;22.16;35.60;99784.69;5056457;28;20032;-49
2022/05/24 11:21:35;;;;;;;1.05;0.30;;;;;;;21.03;36.11;99781.88;5074359;28;20063;-49
2022/05/24 11:24:06;;;;;;;0.50;0.20;;;;;;;19.82;37.47;99790.81;5074201;28;20044;-48
2022/05/24 11:26:39;;;;;;;0.93;0.20;;;;;;;19.07;39.99;99796.56;5074331;28;20111;-51
2022/05/24 11:29:22;;;;;;;0.45;0.28;;;;;;;18.33;41.00;99792.88;5074831;28;20078;-49
2022/05/24 11:31:51;;;;;;;1.33;0.30;;;;;;;17.80;42.48;99833.47;5074231;28;20074;-50
2022/05/24 11:34:27;;;;;;;3.30;0.25;;;;;;;17.30;45.35;99840.00;5074569;28;20036;-51
2022/05/24 11:37:22;;;;;;;0.95;0.30;;;;;;;16.68;48.65;99839.19;5057601;28;20032;-55
2022/05/24 11:39:47;;;;;;;7.75;0.82;;;;;;;16.40;51.12;99851.78;5042548;28;20032;-49
2022/05/24 11:42:46;;;;;;;6.63;0.60;;;;;;;16.38;52.53;99866.63;5074413;28;20086;-49
2022/05/24 11:45:47;;;;;;;1.35;0.40;;;;;;;16.64;50.76;99868.69;5062445;28;20037;-52
2022/05/24 11:48:19;;;;;;;1.08;0.20;;;;;;;16.97;50.35;99866.16;5064073;28;20063;-49
2022/05/24 11:50:47;;;;;;;1.15;0.40;;;;;;;16.98;50.94;99859.69;5076998;28;20028;-50
2022/05/24 11:53:36;;;;;;;2.10;0.30;;;;;;;17.36;50.76;99836.25;5075102;28;20035;-48
2022/05/24 11:56:15;;;;;;;0.10;0.10;;;;;;;17.57;50.09;99838.13;5044277;28;20035;-49
2022/05/24 11:58:47;;;;;;;0.30;0.10;;;;;;;17.83;48.55;99841.13;5073816;28;20457;-48
2022/05/24 12:01:35;;;;;;;0.55;0.20;;;;;;;18.17;47.82;99868.06;5055809;28;20035;-51
2022/05/24 12:10:36;;;;;;;0.40;0.15;;;;;;;19.00;44.21;99864.03;5032090;28;20127;-49
2022/05/24 12:13:38;;;;;;;0.35;0.30;;;;;;;20.54;44.52;99857.03;5042159;28;20036;-50
2022/05/24 12:16:26;;;;;;;0.15;0.10;;;;;;;21.15;41.98;99866.19;5045025;28;20507;-50
2022/05/24 12:18:57;;;;;;;0.10;0.10;;;;;;;21.97;39.02;99858.41;5058814;28;20032;-49
2022/05/24 12:21:39;;;;;;;2.45;0.28;;;;;;;23.68;36.62;99861.00;5072855;28;20025;-50
2022/05/24 12:24:47;;;;;;;0.20;0.10;;;;;;;24.23;33.09;99849.50;5071798;28;20115;-49
2022/05/24 12:27:29;;;;;;;0.55;0.28;;;;;;;24.56;30.13;99838.53;5062896;28;20080;-51
2022/05/24 12:30:35;;;;;;;0.20;0.13;;;;;;;24.13;28.00;99858.72;5057387;28;20499;-49